Time;durP1;ratioP1;P1;durP2;ratioP2;P2;SDS_P1;SDS_P2;PMS_P1;PMS_P2;Temp;Humidity;BMP_temperature;BMP_pressure;BME280_temperature;BME280_humidity;BME280_pressure;Samples;Min_cycle;Max_cycle;Signal;HPM_P1;HPM_P2
2021/07/05 00:01:07;;;;;;;3.90;0.93;;;14.60;78.00;;;;;;6093410;23;20012;-65
2021/07/05 00:03:33;;;;;;;4.63;0.98;;;14.60;78.10;;;;;;6092693;23;20009;-64
2021/07/05 00:06:00;;;;;;;4.80;0.82;;;14.60;78.00;;;;;;6093438;23;20030;-64
2021/07/05 00:08:26;;;;;;;10.43;1.85;;;14.60;78.00;;;;;;6092477;23;20009;-64
2021/07/05 00:10:53;;;;;;;3.92;1.05;;;14.50;78.00;;;;;;6093109;23;20018;-65
2021/07/05 00:13:19;;;;;;;8.23;1.20;;;14.60;78.00;;;;;;6092361;23;20082;-64
2021/07/05 00:15:46;;;;;;;3.42;1.42;;;14.50;77.90;;;;;;6092970;23;20010;-66
2021/07/05 00:18:13;;;;;;;7.13;1.20;;;14.50;77.90;;;;;;6092725;23;20416;-65
2021/07/05 00:20:43;;;;;;;5.35;1.20;;;14.50;77.90;;;;;;6092858;23;20041;-64
2021/07/05 00:23:10;;;;;;;5.18;1.20;;;14.50;77.90;;;;;;6093934;23;20003;-64
2021/07/05 00:25:37;;;;;;;3.70;1.10;;;14.50;77.90;;;;;;6091868;23;20593;-65
2021/07/05 00:28:04;;;;;;;4.00;1.55;;;14.50;77.90;;;;;;6093603;23;20005;-64
2021/07/05 00:30:32;;;;;;;3.25;2.28;;;14.50;77.80;;;;;;6091816;23;20081;-64
2021/07/05 00:32:59;;;;;;;5.57;2.33;;;14.50;77.80;;;;;;6093074;23;20026;-64
2021/07/05 00:35:26;;;;;;;4.60;1.80;;;14.50;77.80;;;;;;6092815;23;20073;-65
2021/07/05 00:37:54;;;;;;;2.20;0.80;;;14.50;77.70;;;;;;6092528;23;20014;-64
2021/07/05 00:40:22;;;;;;;5.88;1.70;;;14.50;77.70;;;;;;6093147;23;20459;-64
2021/07/05 00:42:49;;;;;;;3.50;1.20;;;14.50;77.60;;;;;;6091501;23;19999;-64
2021/07/05 00:45:17;;;;;;;5.38;1.35;;;14.50;77.50;;;;;;6093097;23;19999;-64
2021/07/05 00:47:44;;;;;;;2.13;0.90;;;14.40;77.50;;;;;;6091775;23;20453;-65
2021/07/05 00:50:13;;;;;;;6.45;1.20;;;14.40;77.40;;;;;;6093513;23;19995;-64
2021/07/05 00:52:41;;;;;;;5.45;0.90;;;14.40;77.40;;;;;;6092723;23;19998;-65
2021/07/05 00:55:10;;;;;;;3.75;1.20;;;14.40;77.30;;;;;;6092528;23;20002;-65
2021/07/05 00:57:36;;;;;;;4.35;1.45;;;14.40;77.40;;;;;;6092707;23;20017;-65
2021/07/05 01:00:07;;;;;;;6.22;2.17;;;14.40;77.40;;;;;;6091664;23;20006;-64
2021/07/05 01:02:33;;;;;;;3.40;1.38;;;14.40;77.40;;;;;;6092864;23;19995;-64
2021/07/05 01:05:00;;;;;;;3.97;1.05;;;14.40;77.50;;;;;;6091530;23;20415;-64
2021/07/05 01:07:26;;;;;;;5.60;1.10;;;14.40;77.50;;;;;;6092511;23;20065;-67
2021/07/05 01:09:53;;;;;;;2.92;0.80;;;14.40;77.80;;;;;;6091662;23;20029;-65
2021/07/05 01:12:19;;;;;;;2.90;1.23;;;14.30;77.40;;;;;;6092638;23;20002;-64
2021/07/05 01:14:46;;;;;;;5.05;1.20;;;14.30;77.50;;;;;;6093297;23;20096;-65
2021/07/05 01:17:15;;;;;;;3.03;1.45;;;14.30;77.50;;;;;;6091948;23;20078;-64
2021/07/05 01:19:45;;;;;;;2.72;1.23;;;14.30;77.40;;;;;;6092697;23;20009;-67
2021/07/05 01:22:12;;;;;;;3.33;1.00;;;14.30;77.50;;;;;;6091642;23;20006;-64
2021/07/05 01:24:39;;;;;;;4.90;1.80;;;14.30;77.50;;;;;;6092696;23;20002;-64
2021/07/05 01:27:06;;;;;;;6.80;1.52;;;14.30;77.40;;;;;;6092051;23;20002;-65
2021/07/05 01:29:33;;;;;;;5.53;1.20;;;14.30;77.50;;;;;;6091982;23;20002;-64
2021/07/05 01:32:00;;;;;;;4.15;1.10;;;14.30;77.50;;;;;;6092882;23;20375;-64
2021/07/05 01:34:27;;;;;;;5.00;0.95;;;14.30;77.40;;;;;;6091562;23;19994;-65
2021/07/05 01:36:53;;;;;;;5.25;1.30;;;14.30;77.40;;;;;;6093196;23;20007;-64
2021/07/05 01:39:21;;;;;;;4.13;1.38;;;14.30;77.40;;;;;;6091839;23;20002;-66
2021/07/05 01:41:49;;;;;;;7.03;2.28;;;14.20;77.20;;;;;;6091158;23;20364;-64
2021/07/05 01:44:16;;;;;;;4.47;1.90;;;14.20;77.10;;;;;;6091338;23;20013;-65
2021/07/05 01:46:43;;;;;;;3.83;1.92;;;14.20;77.10;;;;;;6092494;23;20070;-64
2021/07/05 01:49:11;;;;;;;8.38;2.88;;;14.20;76.90;;;;;;6091899;23;20320;-64
2021/07/05 01:51:37;;;;;;;8.63;2.95;;;14.20;76.80;;;;;;6091361;23;20007;-64
2021/07/05 01:54:04;;;;;;;5.53;3.22;;;14.20;76.70;;;;;;6092859;23;20061;-64
2021/07/05 01:56:31;;;;;;;8.48;4.78;;;14.20;76.70;;;;;;6090826;23;20335;-67
2021/07/05 01:58:59;;;;;;;8.32;3.22;;;14.20;76.70;;;;;;6092611;23;20003;-64
2021/07/05 02:01:26;;;;;;;6.70;3.70;;;14.10;77.30;;;;;;6091058;23;20002;-64
2021/07/05 02:03:52;;;;;;;8.13;4.25;;;14.10;76.60;;;;;;6092195;23;20462;-65
2021/07/05 02:06:19;;;;;;;8.55;4.82;;;14.10;76.60;;;;;;6090657;23;19999;-64
2021/07/05 02:08:45;;;;;;;8.63;4.32;;;14.10;76.60;;;;;;6091588;23;20481;-64
2021/07/05 02:11:12;;;;;;;12.55;5.22;;;14.10;76.60;;;;;;6092261;23;20401;-64
2021/07/05 02:13:39;;;;;;;7.57;4.28;;;14.00;76.60;;;;;;6091032;23;20030;-64
2021/07/05 02:16:06;;;;;;;8.68;4.72;;;14.10;76.60;;;;;;6092748;23;20453;-64
2021/07/05 02:18:32;;;;;;;9.80;4.95;;;14.00;76.60;;;;;;6090866;23;20002;-64
2021/07/05 02:21:02;;;;;;;13.07;5.03;;;14.10;76.70;;;;;;6092145;23;20006;-64
2021/07/05 02:23:30;;;;;;;14.75;5.60;;;14.10;76.80;;;;;;6091403;23;19998;-64
2021/07/05 02:25:56;;;;;;;13.32;5.90;;;14.10;76.90;;;;;;6091848;23;20497;-65
2021/07/05 02:28:28;;;;;;;7.82;5.13;;;14.00;76.90;;;;;;6092194;23;20374;-64
2021/07/05 02:30:55;;;;;;;8.82;4.93;;;14.00;77.00;;;;;;6091387;23;20338;-64
2021/07/05 02:33:24;;;;;;;9.38;4.60;;;14.10;77.10;;;;;;6092241;23;20510;-64
2021/07/05 02:35:52;;;;;;;9.65;5.15;;;14.10;77.80;;;;;;6090757;23;20082;-64
2021/07/05 02:38:20;;;;;;;8.65;4.38;;;14.10;77.20;;;;;;6092210;23;20397;-64
2021/07/05 02:40:49;;;;;;;9.23;5.00;;;14.00;77.10;;;;;;6089672;23;20053;-64
2021/07/05 02:43:18;;;;;;;7.85;3.75;;;14.00;77.10;;;;;;6091762;23;19999;-66
2021/07/05 02:45:46;;;;;;;10.95;4.18;;;14.00;77.10;;;;;;6090729;23;20101;-64
2021/07/05 02:48:17;;;;;;;10.60;3.60;;;14.00;77.00;;;;;;6091752;23;20005;-65
2021/07/05 02:50:48;;;;;;;9.70;3.67;;;14.00;76.90;;;;;;6092349;23;20360;-64
2021/07/05 02:53:15;;;;;;;6.40;2.85;;;14.00;76.90;;;;;;6092927;23;20326;-64
2021/07/05 02:55:42;;;;;;;8.07;2.25;;;14.00;76.90;;;;;;6094142;23;20077;-64
2021/07/05 02:58:09;;;;;;;3.17;2.10;;;14.00;77.00;;;;;;6093117;23;20021;-64
2021/07/05 03:00:39;;;;;;;2.13;1.30;;;14.00;77.20;;;;;;6093594;23;20073;-63
2021/07/05 03:03:07;;;;;;;3.53;2.05;;;14.00;77.30;;;;;;6094305;23;20009;-62
2021/07/05 03:05:33;;;;;;;5.00;1.50;;;14.00;77.50;;;;;;6092870;23;20007;-63
2021/07/05 03:08:00;;;;;;;4.13;1.00;;;14.00;77.60;;;;;;6092582;23;20597;-63
2021/07/05 03:10:30;;;;;;;2.20;0.80;;;14.00;77.80;;;;;;6092404;23;20343;-63
2021/07/05 03:12:57;;;;;;;5.88;1.23;;;14.00;78.00;;;;;;6094171;23;20053;-63
2021/07/05 03:15:24;;;;;;;3.35;0.90;;;14.00;78.10;;;;;;6093268;23;20009;-63
2021/07/05 03:17:51;;;;;;;2.92;1.00;;;14.00;78.20;;;;;;6093191;23;20076;-63
2021/07/05 03:20:21;;;;;;;2.78;1.10;;;14.10;78.40;;;;;;6093638;23;20025;-63
2021/07/05 03:22:49;;;;;;;3.63;1.27;;;14.10;78.50;;;;;;6092554;23;20010;-64
2021/07/05 03:25:19;;;;;;;6.00;1.00;;;14.10;78.70;;;;;;6093737;23;20006;-63
2021/07/05 03:27:46;;;;;;;5.40;1.00;;;14.10;78.80;;;;;;6092723;23;20010;-63
2021/07/05 03:30:14;;;;;;;4.25;1.10;;;14.10;79.00;;;;;;6093816;23;20005;-63
2021/07/05 03:32:41;;;;;;;5.28;1.25;;;14.10;79.10;;;;;;6093076;23;19998;-63
2021/07/05 03:35:09;;;;;;;7.30;0.88;;;14.10;79.20;;;;;;6093315;23;20081;-63
2021/07/05 03:37:37;;;;;;;4.50;0.82;;;14.10;79.40;;;;;;6093799;23;20049;-63
2021/07/05 03:40:06;;;;;;;5.05;1.60;;;14.20;79.50;;;;;;6092969;23;20005;-64
2021/07/05 03:42:32;;;;;;;6.10;2.67;;;14.10;79.50;;;;;;6094129;23;20005;-63
2021/07/05 03:44:59;;;;;;;7.88;3.83;;;14.10;79.50;;;;;;6092377;23;20006;-63
2021/07/05 03:47:26;;;;;;;11.38;5.00;;;14.20;79.60;;;;;;6093562;23;20085;-63
2021/07/05 03:49:53;;;;;;;11.00;6.35;;;14.20;79.60;;;;;;6092576;23;20026;-63
2021/07/05 03:52:19;;;;;;;7.97;6.35;;;14.10;79.50;;;;;;6092753;23;20446;-63
2021/07/05 03:54:46;;;;;;;8.48;5.93;;;14.20;79.50;;;;;;6092562;23;20009;-63
2021/07/05 03:57:25;;;;;;;10.20;5.68;;;14.20;79.50;;;;;;6092666;23;20034;-63
2021/07/05 03:59:57;;;;;;;8.63;5.35;;;14.20;79.40;;;;;;6093890;23;20034;-63
2021/07/05 04:02:24;;;;;;;10.35;6.18;;;14.10;79.40;;;;;;6092234;23;20419;-62
2021/07/05 04:04:51;;;;;;;15.95;11.10;;;14.20;80.10;;;;;;6093436;23;20454;-64
2021/07/05 04:07:19;;;;;;;20.40;14.20;;;14.10;79.40;;;;;;6092483;23;20003;-63
2021/07/05 04:09:46;;;;;;;20.92;13.32;;;14.10;79.50;;;;;;6092701;23;20018;-63
2021/07/05 04:12:13;;;;;;;12.88;9.93;;;14.10;79.50;;;;;;6093295;23;20003;-63
2021/07/05 04:14:41;;;;;;;12.93;8.55;;;14.10;79.50;;;;;;6092355;23;20427;-65
2021/07/05 04:17:08;;;;;;;12.80;6.57;;;14.10;79.60;;;;;;6093534;23;20337;-63
2021/07/05 04:19:34;;;;;;;14.35;8.02;;;14.10;79.60;;;;;;6092213;23;20461;-65
2021/07/05 04:22:02;;;;;;;10.13;6.40;;;14.10;79.60;;;;;;6093326;23;19998;-64
2021/07/05 04:24:28;;;;;;;8.88;6.70;;;14.10;79.60;;;;;;6091941;23;20006;-64
2021/07/05 04:26:55;;;;;;;7.57;6.45;;;14.10;79.70;;;;;;6093007;23;20003;-64
2021/07/05 04:29:21;;;;;;;12.75;6.95;;;14.20;79.80;;;;;;6091687;23;20028;-64
2021/07/05 04:31:48;;;;;;;10.88;7.03;;;14.20;79.80;;;;;;6092033;23;20002;-64
2021/07/05 04:34:14;;;;;;;10.73;6.70;;;14.10;79.80;;;;;;6093223;23;20026;-64
2021/07/05 04:36:41;;;;;;;10.73;6.40;;;14.10;79.90;;;;;;6091549;23;20069;-63
2021/07/05 04:39:08;;;;;;;10.82;7.45;;;14.10;80.00;;;;;;6092916;23;20457;-64
2021/07/05 04:41:36;;;;;;;12.10;8.32;;;14.10;80.00;;;;;;6091866;23;20002;-64
2021/07/05 04:44:03;;;;;;;14.35;7.93;;;14.10;80.00;;;;;;6093007;23;20011;-64
2021/07/05 04:46:29;;;;;;;13.00;8.43;;;14.10;80.00;;;;;;6093077;23;19998;-67
2021/07/05 04:48:56;;;;;;;14.10;8.20;;;14.10;80.00;;;;;;6092685;23;19998;-69
2021/07/05 04:51:23;;;;;;;12.75;8.13;;;14.10;80.00;;;;;;6093716;23;20010;-68
2021/07/05 04:53:51;;;;;;;14.25;9.52;;;14.10;80.00;;;;;;6092094;23;20047;-62
2021/07/05 04:56:18;;;;;;;23.50;13.93;;;14.10;80.10;;;;;;6092918;23;20014;-62
2021/07/05 04:58:45;;;;;;;27.77;19.65;;;14.10;80.10;;;;;;6091577;23;20006;-62
2021/07/05 05:01:11;;;;;;;26.38;18.15;;;14.10;80.20;;;;;;6092932;23;20006;-63
2021/07/05 05:03:39;;;;;;;20.33;16.55;;;14.10;80.20;;;;;;6092072;23;20445;-65
2021/07/05 05:06:06;;;;;;;25.55;15.70;;;14.10;80.30;;;;;;6091237;23;20101;-63
2021/07/05 05:08:32;;;;;;;23.40;15.52;;;14.10;80.30;;;;;;6092598;23;20014;-62
2021/07/05 05:10:59;;;;;;;20.23;14.05;;;14.10;80.30;;;;;;6091242;23;20025;-63
2021/07/05 05:13:25;;;;;;;21.92;13.57;;;14.10;80.30;;;;;;6092797;23;20434;-62
2021/07/05 05:15:52;;;;;;;20.77;13.02;;;14.10;80.30;;;;;;6091515;23;20114;-64
2021/07/05 05:18:18;;;;;;;22.88;13.20;;;14.10;80.20;;;;;;6091755;23;20017;-63
2021/07/05 05:20:45;;;;;;;25.00;12.82;;;14.10;80.20;;;;;;6091359;23;20002;-63
2021/07/05 05:23:11;;;;;;;20.95;11.13;;;14.10;80.20;;;;;;6092467;23;20050;-63
2021/07/05 05:25:38;;;;;;;21.58;10.13;;;14.00;80.00;;;;;;6092328;23;20010;-63
2021/07/05 05:28:05;;;;;;;17.50;10.02;;;14.00;79.90;;;;;;6091970;23;20045;-63
2021/07/05 05:30:31;;;;;;;15.05;9.10;;;14.00;79.90;;;;;;6092598;23;20006;-65
2021/07/05 05:32:58;;;;;;;22.40;8.98;;;14.00;79.80;;;;;;6091385;23;20003;-63
2021/07/05 05:35:26;;;;;;;20.25;8.90;;;14.00;79.70;;;;;;6092386;23;20053;-63
2021/07/05 05:37:54;;;;;;;16.65;9.45;;;14.00;79.70;;;;;;6091427;23;20007;-63
2021/07/05 05:40:22;;;;;;;14.90;8.95;;;13.90;79.60;;;;;;6092226;23;20384;-63
2021/07/05 05:42:48;;;;;;;15.38;7.45;;;13.90;79.60;;;;;;6092187;23;19999;-65
2021/07/05 05:45:16;;;;;;;13.50;7.80;;;13.90;79.50;;;;;;6091576;23;20335;-63
2021/07/05 05:47:42;;;;;;;16.90;8.40;;;13.90;79.50;;;;;;6092438;23;19998;-64
2021/07/05 05:50:10;;;;;;;16.35;7.10;;;13.90;79.50;;;;;;6091162;23;20442;-64
2021/07/05 05:52:37;;;;;;;16.85;8.90;;;13.90;79.50;;;;;;6092724;23;20029;-62
2021/07/05 05:55:05;;;;;;;26.58;12.88;;;13.90;79.50;;;;;;6091231;23;20331;-64
2021/07/05 05:57:33;;;;;;;22.88;13.75;;;13.90;79.50;;;;;;6092566;23;20339;-62
2021/07/05 06:00:01;;;;;;;22.23;13.70;;;13.90;79.50;;;;;;6091866;23;20007;-62
2021/07/05 06:02:28;;;;;;;24.27;14.07;;;13.90;79.40;;;;;;6091654;23;20002;-62
2021/07/05 06:04:55;;;;;;;20.50;11.20;;;13.80;79.40;;;;;;6092593;23;20005;-63
2021/07/05 06:07:22;;;;;;;23.42;11.40;;;13.90;79.30;;;;;;6090990;23;21161;-62
2021/07/05 06:09:48;;;;;;;18.70;9.68;;;13.80;79.30;;;;;;6092054;23;20097;-63
2021/07/05 06:12:17;;;;;;;15.52;8.63;;;13.80;79.10;;;;;;6091035;23;20007;-62
2021/07/05 06:14:43;;;;;;;18.90;8.98;;;13.80;79.10;;;;;;6092164;23;20081;-62
2021/07/05 06:17:10;;;;;;;16.77;7.53;;;13.80;79.10;;;;;;6091670;23;20025;-63
2021/07/05 06:19:37;;;;;;;14.55;7.70;;;13.80;79.00;;;;;;6091149;23;19999;-62
2021/07/05 06:22:48;;;;;;;13.55;7.97;;;13.80;78.90;;;;;;6089741;23;20006;-62
2021/07/05 06:25:54;;;;;;;18.98;8.55;;;13.80;78.90;;;;;;6087749;23;20449;-64
2021/07/05 06:29:01;;;;;;;15.85;7.93;;;13.70;78.80;;;;;;6089649;23;20002;-62
2021/07/05 06:31:27;;;;;;;14.20;6.32;;;13.70;78.80;;;;;;6090238;23;20007;-62
2021/07/05 06:33:54;;;;;;;13.57;8.13;;;13.70;78.80;;;;;;6088565;23;20014;-62
2021/07/05 06:36:20;;;;;;;27.83;16.63;;;13.70;78.70;;;;;;6090097;23;20339;-64
2021/07/05 06:39:07;;;;;;;24.98;14.82;;;13.70;78.70;;;;;;6084735;23;20375;-62
2021/07/05 06:41:33;;;;;;;19.35;13.50;;;13.70;78.80;;;;;;6087222;23;20096;-62
2021/07/05 06:43:59;;;;;;;18.48;11.52;;;13.70;78.80;;;;;;6088191;23;20006;-63
2021/07/05 06:46:26;;;;;;;15.38;11.27;;;13.70;78.90;;;;;;6084748;23;20034;-64
2021/07/05 06:48:53;;;;;;;15.90;10.15;;;13.70;79.00;;;;;;6086764;23;20007;-64
2021/07/05 06:51:44;;;;;;;17.55;9.05;;;13.70;79.00;;;;;;6088128;23;20061;-64
2021/07/05 06:54:11;;;;;;;13.88;7.20;;;13.60;79.70;;;;;;6086524;23;20064;-63
2021/07/05 06:56:38;;;;;;;10.18;5.38;;;13.70;79.10;;;;;;6088136;23;20019;-62
2021/07/05 06:59:05;;;;;;;12.85;6.65;;;13.60;79.20;;;;;;6085790;23;20734;-63
2021/07/05 07:01:33;;;;;;;14.70;5.93;;;13.60;79.30;;;;;;6088572;23;20010;-64
2021/07/05 07:03:59;;;;;;;13.88;5.53;;;13.60;79.40;;;;;;6084122;23;20053;-64
2021/07/05 07:07:05;;;;;;;8.15;4.25;;;13.70;79.60;;;;;;6088601;23;20093;-63
2021/07/05 07:09:32;;;;;;;9.88;4.38;;;13.70;79.70;;;;;;6109119;23;20022;-63
2021/07/05 07:11:58;;;;;;;6.72;3.28;;;13.70;79.70;;;;;;6087953;23;20033;-62
2021/07/05 07:14:25;;;;;;;6.88;3.47;;;13.70;79.80;;;;;;6088611;23;20009;-62
2021/07/05 07:16:54;;;;;;;4.80;2.63;;;13.70;79.80;;;;;;6089060;23;20007;-63
2021/07/05 07:19:20;;;;;;;6.60;2.70;;;13.70;79.80;;;;;;6087565;23;20104;-63
2021/07/05 07:21:49;;;;;;;4.22;2.33;;;13.70;80.00;;;;;;6089478;23;20010;-62
2021/07/05 07:24:18;;;;;;;5.82;2.55;;;13.70;80.10;;;;;;6090157;23;20007;-64
2021/07/05 07:26:48;;;;;;;4.35;1.77;;;13.70;80.30;;;;;;6089173;23;20081;-63
2021/07/05 07:29:15;;;;;;;5.95;2.10;;;13.80;80.40;;;;;;6084795;23;20005;-63
2021/07/05 07:31:42;;;;;;;5.40;3.13;;;13.70;80.50;;;;;;6089939;23;20379;-62
2021/07/05 07:34:09;;;;;;;13.10;6.97;;;13.70;80.70;;;;;;6089849;23;20013;-66
2021/07/05 07:36:35;;;;;;;16.60;11.43;;;13.80;81.00;;;;;;6091343;23;20022;-69
2021/07/05 07:39:44;;;;;;;36.60;14.32;;;13.80;81.10;;;;;;6087484;23;19998;-61
2021/07/05 07:42:10;;;;;;;36.92;14.00;;;13.80;81.20;;;;;;6091426;23;20045;-61
2021/07/05 07:44:38;;;;;;;43.03;12.57;;;13.80;81.40;;;;;;6092079;23;20133;-62
2021/07/05 07:47:11;;;;;;;41.00;11.30;;;13.90;81.60;;;;;;6091044;23;20054;-66
2021/07/05 07:49:37;;;;;;;22.13;8.88;;;13.90;81.80;;;;;;6092041;23;20006;-63
2021/07/05 07:52:05;;;;;;;24.30;8.52;;;13.90;81.80;;;;;;6091177;23;20004;-69
2021/07/05 07:54:32;;;;;;;29.05;13.85;;;13.90;81.90;;;;;;6085998;23;20025;-63
2021/07/05 07:57:26;;;;;;;32.78;16.67;;;14.00;82.00;;;;;;6087550;23;20403;-63
2021/07/05 07:59:53;;;;;;;31.40;16.70;;;14.00;82.10;;;;;;6087211;23;20014;-63
2021/07/05 08:02:19;;;;;;;23.40;13.60;;;14.00;82.20;;;;;;6090978;23;20066;-63
2021/07/05 08:04:46;;;;;;;21.58;12.27;;;14.00;82.20;;;;;;6089832;23;20085;-63
2021/07/05 08:07:12;;;;;;;23.35;12.05;;;14.10;82.30;;;;;;6091447;23;20007;-64
2021/07/05 08:09:40;;;;;;;21.85;10.93;;;14.10;82.30;;;;;;6088304;23;20018;-65
2021/07/05 08:12:08;;;;;;;18.60;9.43;;;14.10;82.30;;;;;;6091212;23;20375;-64
2021/07/05 08:14:34;;;;;;;17.30;8.13;;;14.20;82.40;;;;;;6090097;23;20006;-64
2021/07/05 08:17:43;;;;;;;13.25;7.68;;;14.20;82.50;;;;;;6089809;23;20021;-63
2021/07/05 08:20:49;;;;;;;11.95;6.82;;;14.20;82.40;;;;;;6089726;23;19998;-63
2021/07/05 08:23:55;;;;;;;14.38;7.05;;;14.30;82.20;;;;;;6091019;23;20002;-63
2021/07/05 08:26:22;;;;;;;14.05;6.32;;;14.30;82.00;;;;;;6089528;23;20551;-63
2021/07/05 08:28:48;;;;;;;10.52;6.20;;;14.30;82.00;;;;;;6089609;23;19998;-63
2021/07/05 08:31:15;;;;;;;11.43;6.03;;;14.40;82.00;;;;;;6086141;23;20427;-63
2021/07/05 08:33:42;;;;;;;12.52;6.65;;;14.40;81.90;;;;;;6087198;23;20010;-63
2021/07/05 08:36:08;;;;;;;10.07;6.88;;;14.40;81.80;;;;;;6089712;23;20296;-63
2021/07/05 08:38:35;;;;;;;9.52;5.90;;;14.50;81.80;;;;;;6089933;23;20015;-62
2021/07/05 08:41:02;;;;;;;13.05;6.28;;;14.50;81.70;;;;;;6091537;23;20367;-62
2021/07/05 08:43:30;;;;;;;8.68;5.35;;;14.50;81.50;;;;;;6089573;23;20058;-62
2021/07/05 08:46:05;;;;;;;7.97;5.03;;;14.60;81.40;;;;;;6091822;23;20431;-62
2021/07/05 08:48:39;;;;;;;8.23;4.55;;;14.60;81.20;;;;;;6089843;23;20125;-62
2021/07/05 08:51:12;;;;;;;6.15;4.30;;;14.70;80.90;;;;;;6089738;23;20408;-63
2021/07/05 08:54:07;;;;;;;7.45;4.35;;;14.70;80.70;;;;;;6090015;23;20006;-62
2021/07/05 08:56:33;;;;;;;11.90;4.73;;;14.70;80.40;;;;;;6088050;23;20038;-62
2021/07/05 08:59:00;;;;;;;6.68;3.83;;;14.70;80.30;;;;;;6092157;23;20689;-62
2021/07/05 09:01:26;;;;;;;6.50;3.35;;;14.80;80.10;;;;;;6091625;23;20496;-62
2021/07/05 09:03:53;;;;;;;8.48;4.05;;;14.90;80.10;;;;;;6092556;23;20002;-62
2021/07/05 09:06:22;;;;;;;4.47;3.08;;;14.90;79.90;;;;;;6091943;23;20006;-62
2021/07/05 09:08:58;;;;;;;4.63;3.05;;;14.90;79.70;;;;;;6091356;23;19998;-63
2021/07/05 09:11:53;;;;;;;5.85;3.05;;;15.00;79.50;;;;;;6092222;23;20023;-62
2021/07/05 09:14:24;;;;;;;5.63;3.00;;;15.00;79.30;;;;;;6090811;23;20009;-63
2021/07/05 09:16:53;;;;;;;8.05;3.75;;;15.00;79.10;;;;;;6092027;23;20007;-62
2021/07/05 09:19:27;;;;;;;6.68;3.17;;;15.10;79.10;;;;;;6091832;23;20029;-62
2021/07/05 09:22:05;;;;;;;6.38;2.92;;;15.10;79.10;;;;;;6091200;23;20025;-62
2021/07/05 09:24:41;;;;;;;6.95;3.72;;;15.10;78.90;;;;;;6092164;23;20009;-62
2021/07/05 09:27:17;;;;;;;7.35;3.38;;;15.20;78.80;;;;;;6091387;23;20029;-63
2021/07/05 09:29:45;;;;;;;7.13;2.35;;;15.20;78.70;;;;;;6091757;23;20003;-63
2021/07/05 09:32:21;;;;;;;6.85;2.65;;;15.30;78.60;;;;;;6091509;23;20025;-63
2021/07/05 09:34:48;;;;;;;8.90;3.03;;;15.30;78.10;;;;;;6091293;23;19998;-62
2021/07/05 09:37:30;;;;;;;7.25;3.20;;;15.40;77.80;;;;;;6092296;23;20387;-63
2021/07/05 09:40:02;;;;;;;9.13;2.75;;;15.40;77.50;;;;;;6090516;23;20002;-63
2021/07/05 09:42:31;;;;;;;3.33;2.03;;;15.40;77.30;;;;;;6091525;23;20060;-62
2021/07/05 09:44:59;;;;;;;6.07;1.92;;;15.50;77.10;;;;;;6090668;23;20034;-62
2021/07/05 09:47:26;;;;;;;5.53;2.67;;;15.60;77.00;;;;;;6092318;23;20003;-62
2021/07/05 09:49:57;;;;;;;5.55;2.53;;;15.50;76.80;;;;;;6091730;23;20005;-62
2021/07/05 09:52:26;;;;;;;4.90;2.75;;;15.60;76.60;;;;;;6091722;23;20002;-62
2021/07/05 09:54:59;;;;;;;3.67;1.58;;;15.60;76.40;;;;;;6092351;23;20005;-62
2021/07/05 09:57:52;;;;;;;6.53;1.45;;;15.70;76.40;;;;;;6089685;23;20018;-62
2021/07/05 10:00:22;;;;;;;2.53;1.17;;;15.80;76.30;;;;;;6085975;23;20057;-62
2021/07/05 10:03:01;;;;;;;2.63;1.88;;;15.80;76.20;;;;;;6090943;23;20568;-62
2021/07/05 10:05:47;;;;;;;3.92;1.40;;;15.90;76.00;;;;;;6090582;23;20490;-63
2021/07/05 10:08:15;;;;;;;5.57;1.50;;;15.90;75.80;;;;;;6088321;23;20017;-63
2021/07/05 10:10:45;;;;;;;2.80;1.38;;;16.00;75.60;;;;;;6086838;23;20451;-63
2021/07/05 10:13:17;;;;;;;9.05;2.67;;;16.00;75.60;;;;;;6091276;23;20006;-64
2021/07/05 10:15:46;;;;;;;13.52;1.88;;;16.10;75.70;;;;;;6091226;23;20744;-63
2021/07/05 10:18:13;;;;;;;3.40;1.70;;;16.20;75.50;;;;;;6091439;23;20015;-63
2021/07/05 10:20:49;;;;;;;3.70;2.20;;;16.20;75.20;;;;;;6091871;23;20330;-62
2021/07/05 10:23:55;;;;;;;3.47;1.70;;;16.20;75.00;;;;;;6090068;23;20050;-61
2021/07/05 10:26:22;;;;;;;3.80;1.52;;;16.30;74.70;;;;;;6090217;23;20066;-63
2021/07/05 10:28:49;;;;;;;2.92;1.40;;;16.30;75.10;;;;;;6085333;23;20864;-63
2021/07/05 10:31:16;;;;;;;3.50;1.30;;;16.40;74.20;;;;;;6088961;23;20061;-63
2021/07/05 10:33:42;;;;;;;8.48;2.85;;;16.40;73.90;;;;;;6091151;23;20010;-63
2021/07/05 10:36:11;;;;;;;10.13;2.17;;;16.50;73.50;;;;;;6089272;23;20436;-63
2021/07/05 10:39:01;;;;;;;6.13;1.58;;;16.50;73.20;;;;;;6089192;23;20010;-62
2021/07/05 10:41:37;;;;;;;4.55;2.22;;;16.60;73.20;;;;;;6090034;23;20014;-64
2021/07/05 10:44:10;;;;;;;2.58;1.73;;;16.60;73.00;;;;;;6090141;23;20010;-63
2021/07/05 10:46:54;;;;;;;4.63;1.38;;;16.70;72.90;;;;;;6089254;23;20011;-63
2021/07/05 10:49:33;;;;;;;4.68;1.33;;;16.80;72.70;;;;;;6088970;23;20018;-62
2021/07/05 10:52:28;;;;;;;10.13;1.73;;;16.80;72.10;;;;;;6090911;23;20076;-64
2021/07/05 10:54:57;;;;;;;6.00;1.95;;;16.90;71.80;;;;;;6089217;23;20003;-63
2021/07/05 10:57:34;;;;;;;6.07;1.60;;;17.00;71.60;;;;;;6088152;23;20015;-64
2021/07/05 11:00:19;;;;;;;5.60;1.35;;;17.00;71.60;;;;;;6089054;23;20010;-63
2021/07/05 11:02:48;;;;;;;5.35;1.95;;;17.00;71.90;;;;;;6089323;23;20010;-63
2021/07/05 11:05:45;;;;;;;3.88;1.45;;;17.10;71.80;;;;;;6090889;23;20003;-63
2021/07/05 11:08:38;;;;;;;3.97;1.40;;;17.20;71.40;;;;;;6091751;23;20013;-63
2021/07/05 11:11:25;;;;;;;8.20;1.65;;;17.30;71.00;;;;;;6091269;23;20370;-64
2021/07/05 11:14:16;;;;;;;4.70;1.67;;;17.30;70.60;;;;;;6093153;23;20331;-64
2021/07/05 11:16:54;;;;;;;5.80;2.13;;;17.40;70.10;;;;;;6092447;23;20066;-64
2021/07/05 11:19:39;;;;;;;5.60;1.95;;;17.40;70.00;;;;;;6091391;23;20339;-65
2021/07/05 11:22:10;;;;;;;3.70;1.83;;;17.30;70.10;;;;;;6092698;23;20010;-66
2021/07/05 11:24:46;;;;;;;5.20;1.30;;;17.40;70.10;;;;;;6091185;23;20059;-64
2021/07/05 11:27:31;;;;;;;5.85;1.58;;;17.40;69.70;;;;;;6092041;23;20034;-65
2021/07/05 11:30:16;;;;;;;2.97;1.30;;;17.40;69.30;;;;;;6093667;23;20061;-64
2021/07/05 11:33:06;;;;;;;4.50;0.90;;;17.50;69.20;;;;;;6091389;23;20339;-64
2021/07/05 11:35:35;;;;;;;3.67;1.30;;;17.50;68.90;;;;;;6076864;23;20347;-65
2021/07/05 11:38:10;;;;;;;2.58;1.15;;;17.60;68.50;;;;;;6092909;23;20021;-65
2021/07/05 11:40:42;;;;;;;2.88;1.10;;;17.60;68.20;;;;;;6092880;23;20423;-64
2021/07/05 11:43:10;;;;;;;4.90;1.50;;;17.70;68.20;;;;;;6093551;23;20006;-64
2021/07/05 11:45:47;;;;;;;3.42;1.23;;;17.70;68.20;;;;;;6092303;23;20025;-64
2021/07/05 11:48:39;;;;;;;5.88;1.38;;;17.80;67.80;;;;;;6093489;23;20430;-63
2021/07/05 11:51:21;;;;;;;2.90;1.42;;;17.80;67.50;;;;;;6078054;23;20049;-64
2021/07/05 11:54:09;;;;;;;5.82;1.60;;;17.90;67.70;;;;;;6092901;23;20022;-64
2021/07/05 11:56:43;;;;;;;4.32;1.67;;;17.90;67.60;;;;;;6093431;23;20094;-63
2021/07/05 11:59:13;;;;;;;3.85;2.05;;;17.90;67.50;;;;;;6092563;23;20394;-64
2021/07/05 12:01:41;;;;;;;6.88;2.22;;;17.90;67.60;;;;;;6093416;23;20024;-64
2021/07/05 12:04:10;;;;;;;5.32;1.98;;;18.00;67.80;;;;;;6092974;23;19998;-65
2021/07/05 12:06:37;;;;;;;12.80;2.05;;;18.00;67.80;;;;;;6092166;23;20026;-65
2021/07/05 12:09:08;;;;;;;7.05;1.52;;;18.10;67.90;;;;;;6092760;23;20017;-64
2021/07/05 12:11:37;;;;;;;10.00;2.25;;;18.10;67.80;;;;;;6091321;23;20003;-64
2021/07/05 12:14:15;;;;;;;5.78;1.55;;;18.20;67.70;;;;;;6093079;23;20030;-64
2021/07/05 12:16:50;;;;;;;2.45;1.25;;;18.20;67.30;;;;;;6092094;23;20033;-64
2021/07/05 12:19:17;;;;;;;5.95;1.70;;;18.30;67.00;;;;;;6091843;23;20002;-63
2021/07/05 12:21:50;;;;;;;9.23;2.28;;;18.30;66.80;;;;;;6092597;23;20002;-64
2021/07/05 12:24:18;;;;;;;4.65;2.08;;;18.30;66.90;;;;;;6091031;23;20009;-64
2021/07/05 12:26:49;;;;;;;6.20;2.33;;;18.30;67.00;;;;;;6090922;23;20022;-65
2021/07/05 12:29:24;;;;;;;5.22;1.75;;;18.30;67.00;;;;;;6091519;23;20010;-64
2021/07/05 12:32:03;;;;;;;7.43;2.17;;;18.30;67.00;;;;;;6092726;23;20006;-64
2021/07/05 12:34:46;;;;;;;6.40;1.65;;;18.30;66.90;;;;;;6092809;23;20498;-65
2021/07/05 12:37:46;;;;;;;3.90;1.55;;;18.40;67.00;;;;;;6091785;23;20014;-64
2021/07/05 12:40:16;;;;;;;8.05;2.03;;;18.40;66.90;;;;;;6093165;23;20025;-65
2021/07/05 12:42:49;;;;;;;4.53;1.60;;;18.40;65.30;;;;;;6091589;23;20490;-66
2021/07/05 12:45:34;;;;;;;6.20;1.70;;;18.40;64.70;;;;;;6092425;23;20007;-65
2021/07/05 12:48:11;;;;;;;6.65;1.90;;;18.40;64.20;;;;;;6092729;23;20436;-65
2021/07/05 12:51:00;;;;;;;6.05;1.85;;;18.40;64.80;;;;;;6091477;23;20002;-66
2021/07/05 12:53:41;;;;;;;5.45;1.42;;;18.40;65.50;;;;;;6092633;23;20010;-63
2021/07/05 12:56:16;;;;;;;6.20;1.40;;;18.40;65.70;;;;;;6090509;23;20436;-63
2021/07/05 12:58:45;;;;;;;6.28;2.00;;;18.50;65.80;;;;;;6091720;23;20783;-64
2021/07/05 13:01:30;;;;;;;5.63;1.50;;;18.50;65.90;;;;;;6092804;23;20026;-63